createdAt,value
2019-02-17T00:00:46.551Z,1.40
2019-02-17T00:03:16.040Z,1.40
2019-02-17T00:05:45.556Z,1.40
2019-02-17T00:08:15.063Z,1.30
2019-02-17T00:10:44.577Z,1.30
2019-02-17T00:13:14.122Z,1.30
2019-02-17T00:15:43.754Z,1.20
2019-02-17T00:18:13.284Z,1.10
2019-02-17T00:20:42.780Z,1.10
2019-02-17T00:23:12.351Z,1.10
2019-02-17T00:25:41.848Z,1.10
2019-02-17T00:28:11.352Z,1.10
2019-02-17T00:30:40.860Z,1.10
2019-02-17T00:33:10.384Z,1.10
2019-02-17T00:35:39.917Z,1.10
2019-02-17T00:38:09.419Z,1.10
2019-02-17T00:40:39.244Z,1.10
2019-02-17T00:43:08.791Z,1.00
2019-02-17T00:45:38.307Z,1.00
2019-02-17T00:48:07.868Z,1.00
2019-02-17T00:50:37.780Z,1.00
2019-02-17T00:53:07.308Z,0.90
2019-02-17T00:55:37.250Z,0.90
2019-02-17T00:58:06.797Z,0.90
2019-02-17T01:00:36.322Z,0.80
2019-02-17T01:03:05.935Z,0.80
2019-02-17T01:05:35.560Z,0.70
2019-02-17T01:08:05.004Z,0.80
2019-02-17T01:10:34.550Z,0.70
2019-02-17T01:13:04.084Z,0.70
2019-02-17T01:15:33.660Z,0.70
2019-02-17T01:18:03.181Z,0.70
2019-02-17T01:20:32.735Z,0.80
2019-02-17T01:23:02.255Z,0.80
2019-02-17T01:25:31.797Z,0.80
2019-02-17T01:28:01.324Z,0.90
2019-02-17T01:30:31.206Z,0.90
2019-02-17T01:33:00.730Z,0.90
2019-02-17T01:35:30.243Z,0.90
2019-02-17T01:38:00.105Z,0.90
2019-02-17T01:40:30.054Z,0.80
2019-02-17T01:42:59.600Z,0.80
2019-02-17T01:45:29.140Z,0.80
2019-02-17T01:47:58.789Z,0.70
2019-02-17T01:50:28.288Z,0.70
2019-02-17T01:52:57.796Z,0.70
2019-02-17T01:55:28.048Z,0.70
2019-02-17T01:57:58.033Z,0.60
2019-02-17T02:00:27.936Z,0.70
2019-02-17T02:02:57.485Z,0.70
2019-02-17T02:05:27.003Z,0.70
2019-02-17T02:07:56.654Z,0.60
2019-02-17T02:10:26.190Z,0.60
2019-02-17T02:12:56.011Z,0.60
2019-02-17T02:15:25.993Z,0.50
2019-02-17T02:17:55.852Z,0.50
2019-02-17T02:20:25.477Z,0.50
2019-02-17T02:22:54.975Z,0.50
2019-02-17T02:25:24.523Z,0.40
2019-02-17T02:27:54.039Z,0.40
2019-02-17T02:30:23.602Z,0.50
2019-02-17T02:32:53.120Z,0.50
2019-02-17T02:35:22.745Z,0.50
2019-02-17T02:37:52.293Z,0.40
2019-02-17T02:40:22.000Z,0.40
2019-02-17T02:42:51.534Z,0.40
2019-02-17T02:45:21.032Z,0.30
2019-02-17T02:47:50.559Z,0.30
2019-02-17T02:50:20.085Z,0.30
2019-02-17T02:52:50.022Z,0.30
2019-02-17T02:55:19.533Z,0.30
2019-02-17T02:57:49.103Z,0.30
2019-02-17T03:00:18.625Z,0.40
2019-02-17T03:02:48.198Z,0.40
2019-02-17T03:05:17.753Z,0.40
2019-02-17T03:07:47.252Z,0.40
2019-02-17T03:10:16.760Z,0.30
2019-02-17T03:12:46.293Z,0.30
2019-02-17T03:15:15.843Z,0.30
2019-02-17T03:17:45.385Z,0.30
2019-02-17T03:20:15.617Z,0.30
2019-02-17T03:22:45.324Z,0.30
2019-02-17T03:25:15.212Z,0.30
2019-02-17T03:27:45.078Z,0.30
2019-02-17T03:30:14.871Z,0.20
2019-02-17T03:32:44.419Z,0.20
2019-02-17T03:35:13.954Z,0.20
2019-02-17T03:37:43.557Z,0.20
2019-02-17T03:40:13.146Z,0.10
2019-02-17T03:42:42.684Z,0.10
2019-02-17T03:45:12.327Z,0.10
2019-02-17T03:47:41.887Z,0.10
2019-02-17T03:50:11.853Z,0.10
2019-02-17T03:52:41.438Z,0.10
2019-02-17T03:55:11.104Z,0.00
2019-02-17T03:57:40.965Z,0.00
2019-02-17T04:00:16.873Z,0.00
2019-02-17T04:02:42.172Z,0.00
2019-02-17T04:05:11.686Z,0.00
2019-02-17T04:07:41.186Z,-0.10
2019-02-17T04:10:10.735Z,0.00
2019-02-17T04:12:40.426Z,-0.10
2019-02-17T04:15:10.026Z,-0.10
2019-02-17T04:17:39.583Z,-0.10
2019-02-17T04:20:09.526Z,-0.10
2019-02-17T04:22:39.053Z,-0.10
2019-02-17T04:25:08.684Z,-0.10
2019-02-17T04:27:38.272Z,-0.10
2019-02-17T04:30:08.269Z,-0.20
2019-02-17T04:32:37.797Z,-0.10
2019-02-17T04:35:07.379Z,-0.20
2019-02-17T04:37:36.935Z,-0.20
2019-02-17T04:40:06.459Z,-0.20
2019-02-17T04:42:36.346Z,-0.30
2019-02-17T04:45:06.023Z,-0.30
2019-02-17T04:47:35.567Z,-0.30
2019-02-17T04:50:05.225Z,-0.30
2019-02-17T04:52:34.744Z,-0.40
2019-02-17T04:55:07.498Z,-0.40
2019-02-17T04:57:37.069Z,-0.40
2019-02-17T05:00:07.198Z,-0.40
2019-02-17T05:02:37.229Z,-0.50
2019-02-17T05:05:09.867Z,-0.50
2019-02-17T05:07:40.305Z,-0.40
2019-02-17T05:10:10.120Z,-0.40
2019-02-17T05:12:39.645Z,-0.50
2019-02-17T05:15:09.451Z,-0.50
2019-02-17T05:17:38.968Z,-0.50
2019-02-17T05:20:08.562Z,-0.50
2019-02-17T05:22:39.388Z,-0.50
2019-02-17T05:25:09.215Z,-0.50
2019-02-17T05:27:38.752Z,-0.50
2019-02-17T05:30:09.217Z,-0.50
2019-02-17T05:32:38.797Z,-0.60
2019-02-17T05:35:08.331Z,-0.60
2019-02-17T05:37:37.869Z,-0.60
2019-02-17T05:40:07.881Z,-0.70
2019-02-17T05:42:37.460Z,-0.70
2019-02-17T05:45:07.473Z,-0.70
2019-02-17T05:47:37.462Z,-0.70
2019-02-17T05:50:07.047Z,-0.70
2019-02-17T05:52:36.539Z,-0.70
2019-02-17T05:55:06.843Z,-0.70
2019-02-17T05:57:36.474Z,-0.70
2019-02-17T06:00:06.910Z,-0.70
2019-02-17T06:02:36.448Z,-0.70
2019-02-17T06:05:06.589Z,-0.70
2019-02-17T06:07:36.118Z,-0.70
2019-02-17T06:10:06.124Z,-0.80
2019-02-17T06:12:35.765Z,-0.80
2019-02-17T06:15:06.144Z,-0.80
2019-02-17T06:17:35.648Z,-0.80
2019-02-17T06:20:05.868Z,-0.90
2019-02-17T06:22:35.437Z,-0.80
2019-02-17T06:25:05.216Z,-0.80
2019-02-17T06:27:35.629Z,-0.80
2019-02-17T06:30:06.007Z,-0.80
2019-02-17T06:32:35.549Z,-0.80
2019-02-17T06:35:05.232Z,-0.90
2019-02-17T06:37:34.769Z,-0.90
2019-02-17T06:40:04.992Z,-0.90
2019-02-17T06:42:34.519Z,-0.90
2019-02-17T06:45:04.092Z,-1.00
2019-02-17T06:47:35.153Z,-0.90
2019-02-17T06:50:05.153Z,-0.90
2019-02-17T06:52:34.684Z,-0.90
2019-02-17T06:55:35.525Z,-1.00
2019-02-17T06:58:05.384Z,-0.90
2019-02-17T07:00:38.080Z,-0.90
2019-02-17T07:03:07.607Z,-0.90
2019-02-17T07:05:59.248Z,-0.90
2019-02-17T07:08:28.764Z,-0.90
2019-02-17T07:10:58.489Z,-0.90
2019-02-17T07:13:28.022Z,-0.80
2019-02-17T07:15:58.225Z,-0.80
2019-02-17T07:18:27.824Z,-0.80
2019-02-17T07:20:57.311Z,-0.80
2019-02-17T07:23:27.201Z,-0.70
2019-02-17T07:25:56.770Z,-0.70
2019-02-17T07:28:26.344Z,-0.70
2019-02-17T07:30:55.855Z,-0.60
2019-02-17T07:33:25.467Z,-0.60
2019-02-17T07:35:54.969Z,-0.60
2019-02-17T07:38:24.500Z,-0.50
2019-02-17T07:40:54.052Z,-0.50
2019-02-17T07:43:23.745Z,-0.40
2019-02-17T07:45:53.436Z,-0.40
2019-02-17T07:48:22.944Z,-0.40
2019-02-17T07:50:52.601Z,-0.30
2019-02-17T07:53:22.477Z,-0.30
2019-02-17T07:55:52.028Z,-0.20
2019-02-17T07:58:21.581Z,-0.20
2019-02-17T08:00:51.139Z,-0.10
2019-02-17T08:03:20.696Z,-0.10
2019-02-17T08:05:50.198Z,0.00
2019-02-17T08:08:19.715Z,0.10
2019-02-17T08:10:49.648Z,0.20
2019-02-17T08:13:19.201Z,0.20
2019-02-17T08:15:48.734Z,0.30
2019-02-17T08:18:18.317Z,0.40
2019-02-17T08:20:47.800Z,0.40
2019-02-17T08:23:17.696Z,0.50
2019-02-17T08:25:47.241Z,0.60
2019-02-17T08:28:17.083Z,0.70
2019-02-17T08:30:46.623Z,0.90
2019-02-17T08:33:16.146Z,1.00
2019-02-17T08:35:45.943Z,1.10
2019-02-17T08:38:15.431Z,1.20
2019-02-17T08:40:44.980Z,1.30
2019-02-17T08:43:14.544Z,1.40
2019-02-17T08:45:44.641Z,1.50
2019-02-17T08:48:14.968Z,1.60
2019-02-17T08:50:44.841Z,1.70
2019-02-17T08:53:14.409Z,1.80
2019-02-17T08:55:43.934Z,1.90
2019-02-17T08:58:13.499Z,2.00
2019-02-17T09:00:43.453Z,2.20
2019-02-17T09:03:12.953Z,2.30
2019-02-17T09:05:44.446Z,2.40
2019-02-17T09:08:14.196Z,2.60
2019-02-17T09:10:44.148Z,2.80
2019-02-17T09:13:14.435Z,3.00
2019-02-17T09:15:44.212Z,3.20
2019-02-17T09:18:14.149Z,3.30
2019-02-17T09:20:44.112Z,3.50
2019-02-17T09:23:13.989Z,3.80
2019-02-17T09:25:43.530Z,3.90
2019-02-17T09:28:13.031Z,4.00
2019-02-17T09:30:43.149Z,4.10
2019-02-17T09:33:13.058Z,4.20
2019-02-17T09:35:42.656Z,4.30
2019-02-17T09:38:12.208Z,4.50
2019-02-17T09:40:41.709Z,4.60
2019-02-17T09:43:11.354Z,4.80
2019-02-17T09:45:40.979Z,4.90
2019-02-17T09:48:10.637Z,5.00
2019-02-17T09:50:40.251Z,5.10
2019-02-17T09:53:10.130Z,5.20
2019-02-17T09:55:39.657Z,5.30
2019-02-17T09:58:09.127Z,5.50
2019-02-17T10:00:39.004Z,5.60
2019-02-17T10:03:08.667Z,5.70
2019-02-17T10:05:38.232Z,5.80
2019-02-17T10:08:07.705Z,5.90
2019-02-17T10:10:37.629Z,6.10
2019-02-17T10:13:07.288Z,6.20
2019-02-17T10:15:37.406Z,6.30
2019-02-17T10:18:07.556Z,6.40
2019-02-17T10:20:37.422Z,6.50
2019-02-17T10:23:06.935Z,6.70
2019-02-17T10:25:36.470Z,6.90
2019-02-17T10:28:06.504Z,7.00
2019-02-17T10:30:36.028Z,7.10
2019-02-17T10:33:05.622Z,7.20
2019-02-17T10:35:35.116Z,7.40
2019-02-17T10:38:05.259Z,7.60
2019-02-17T10:40:34.797Z,7.70
2019-02-17T10:43:04.723Z,7.80
2019-02-17T10:45:34.240Z,7.90
2019-02-17T10:48:04.204Z,8.00
2019-02-17T10:50:33.755Z,8.10
2019-02-17T10:53:03.424Z,8.20
2019-02-17T10:55:32.925Z,8.30
2019-02-17T10:58:02.415Z,8.30
2019-02-17T11:00:32.085Z,8.30
2019-02-17T11:03:10.853Z,8.40
2019-02-17T11:05:40.798Z,8.60
2019-02-17T11:08:10.278Z,8.70
2019-02-17T11:10:39.808Z,8.90
2019-02-17T11:13:10.284Z,9.00
2019-02-17T11:15:39.872Z,9.10
2019-02-17T11:18:09.475Z,9.20
2019-02-17T11:20:39.001Z,9.40
2019-02-17T11:23:08.565Z,9.50
2019-02-17T11:25:38.088Z,9.60
2019-02-17T11:28:08.038Z,9.70
2019-02-17T11:30:37.584Z,9.90
2019-02-17T11:33:07.585Z,10.00
2019-02-17T11:35:37.093Z,10.10
2019-02-17T11:38:06.638Z,10.20
2019-02-17T11:40:36.201Z,10.50
2019-02-17T11:43:06.020Z,10.50
2019-02-17T11:45:35.560Z,10.60
2019-02-17T11:48:05.095Z,10.70
2019-02-17T11:50:34.872Z,10.70
2019-02-17T11:53:04.505Z,10.70
2019-02-17T11:55:34.384Z,10.70
2019-02-17T11:58:03.975Z,10.90
2019-02-17T12:00:33.528Z,11.10
2019-02-17T12:03:07.933Z,11.30
2019-02-17T12:05:34.656Z,11.40
2019-02-17T12:08:04.248Z,11.40
2019-02-17T12:10:33.779Z,11.40
2019-02-17T12:13:04.605Z,11.50
2019-02-17T12:15:34.229Z,11.50
2019-02-17T12:18:04.335Z,11.60
2019-02-17T12:20:55.593Z,11.70
2019-02-17T12:23:35.756Z,11.80
2019-02-17T12:26:26.299Z,11.90
2019-02-17T12:29:07.215Z,11.90
2019-02-17T12:31:38.835Z,11.90
2019-02-17T12:34:08.537Z,12.00
2019-02-17T12:36:38.075Z,12.20
2019-02-17T12:39:09.568Z,12.30
2019-02-17T12:41:39.164Z,12.40
2019-02-17T12:44:08.701Z,12.50
2019-02-17T12:46:38.226Z,12.50
2019-02-17T12:49:07.805Z,12.50
2019-02-17T12:51:37.380Z,12.60
2019-02-17T12:54:06.932Z,12.60
2019-02-17T12:56:36.909Z,12.60
2019-02-17T12:59:06.645Z,12.60
2019-02-17T13:01:36.439Z,12.60
2019-02-17T13:04:06.007Z,12.70
2019-02-17T13:06:35.875Z,12.80
2019-02-17T13:09:07.241Z,12.80
2019-02-17T13:11:36.756Z,12.80
2019-02-17T13:14:07.109Z,12.90
2019-02-17T13:16:37.316Z,13.00
2019-02-17T13:19:06.831Z,13.00
2019-02-17T13:21:36.376Z,13.00
2019-02-17T13:24:05.916Z,13.10
2019-02-17T13:26:35.499Z,13.20
2019-02-17T13:29:05.060Z,13.20
2019-02-17T13:31:34.601Z,13.30
2019-02-17T13:34:05.459Z,13.40
2019-02-17T13:36:34.982Z,13.50
2019-02-17T13:39:06.178Z,13.60
2019-02-17T13:41:35.689Z,13.60
2019-02-17T13:44:05.365Z,13.70
2019-02-17T13:46:34.886Z,13.70
2019-02-17T13:49:04.868Z,13.60
2019-02-17T13:51:34.788Z,13.60
2019-02-17T13:54:04.796Z,13.70
2019-02-17T13:56:34.744Z,13.70
2019-02-17T13:59:04.293Z,13.70
2019-02-17T14:01:33.978Z,13.80
2019-02-17T14:04:03.463Z,13.90
2019-02-17T14:06:32.987Z,13.80
2019-02-17T14:09:03.286Z,13.80
2019-02-17T14:11:32.820Z,13.70
2019-02-17T14:14:02.366Z,13.80
2019-02-17T14:16:31.909Z,13.70
2019-02-17T14:19:02.521Z,13.60
2019-02-17T14:21:32.151Z,13.50
2019-02-17T14:24:02.780Z,13.50
2019-02-17T14:26:32.428Z,13.50
2019-02-17T14:29:01.970Z,13.50
2019-02-17T14:31:32.236Z,13.50
2019-02-17T14:34:02.169Z,13.40
2019-02-17T14:36:32.100Z,13.40
2019-02-17T14:39:01.607Z,13.50
2019-02-17T14:41:31.615Z,13.40
2019-02-17T14:44:01.172Z,13.40
2019-02-17T14:46:31.044Z,13.40
2019-02-17T14:49:02.450Z,13.40
2019-02-17T14:51:32.269Z,13.40
2019-02-17T14:54:01.995Z,13.30
2019-02-17T14:56:31.457Z,13.30
2019-02-17T14:59:02.474Z,13.20
2019-02-17T15:01:32.564Z,13.20
2019-02-17T15:04:08.328Z,13.20
2019-02-17T15:06:33.568Z,13.20
2019-02-17T15:09:05.094Z,13.10
2019-02-17T15:11:35.006Z,13.10
2019-02-17T15:14:04.632Z,13.10
2019-02-17T15:16:34.175Z,13.10
2019-02-17T15:19:04.145Z,13.00
2019-02-17T15:21:33.652Z,12.90
2019-02-17T15:24:03.168Z,12.80
2019-02-17T15:26:33.444Z,12.80
2019-02-17T15:29:03.693Z,12.80
2019-02-17T15:31:33.627Z,12.80
2019-02-17T15:34:03.264Z,12.80
2019-02-17T15:36:32.857Z,12.80
2019-02-17T15:39:02.363Z,12.70
2019-02-17T15:41:31.891Z,12.60
2019-02-17T15:44:01.788Z,12.50
2019-02-17T15:46:31.307Z,12.40
2019-02-17T15:49:00.882Z,12.30
2019-02-17T15:51:30.569Z,12.30
2019-02-17T15:54:00.086Z,12.20
2019-02-17T15:56:29.725Z,12.10
2019-02-17T15:58:59.286Z,12.00
2019-02-17T16:01:28.810Z,11.90
2019-02-17T16:03:58.454Z,11.80
2019-02-17T16:06:28.007Z,11.70
2019-02-17T16:08:57.902Z,11.50
2019-02-17T16:11:27.420Z,11.40
2019-02-17T16:13:56.980Z,11.30
2019-02-17T16:16:26.955Z,11.20
2019-02-17T16:18:56.774Z,11.10
2019-02-17T16:21:27.312Z,11.00
2019-02-17T16:23:57.004Z,10.90
2019-02-17T16:26:26.849Z,10.90
2019-02-17T16:28:56.789Z,10.80
2019-02-17T16:31:26.812Z,10.60
2019-02-17T16:33:56.805Z,10.50
2019-02-17T16:36:26.752Z,10.30
2019-02-17T16:38:56.282Z,10.20
2019-02-17T16:41:26.132Z,10.10
2019-02-17T16:43:55.719Z,10.00
2019-02-17T16:46:25.228Z,9.90
2019-02-17T16:48:54.818Z,9.80
2019-02-17T16:51:24.431Z,9.70
2019-02-17T16:53:54.040Z,9.60
2019-02-17T16:56:23.555Z,9.50
2019-02-17T16:58:53.481Z,9.30
2019-02-17T17:01:23.099Z,9.20
2019-02-17T17:03:52.751Z,9.10
2019-02-17T17:06:22.265Z,8.90
2019-02-17T17:08:52.342Z,8.90
2019-02-17T17:11:22.237Z,8.70
2019-02-17T17:13:51.765Z,8.50
2019-02-17T17:16:21.289Z,8.40
2019-02-17T17:18:50.855Z,8.30
2019-02-17T17:21:20.502Z,8.20
2019-02-17T17:23:50.008Z,8.10
2019-02-17T17:26:19.959Z,7.90
2019-02-17T17:28:49.867Z,7.80
2019-02-17T17:31:19.854Z,7.70
2019-02-17T17:33:49.372Z,7.60
2019-02-17T17:36:19.211Z,7.50
2019-02-17T17:38:48.780Z,7.40
2019-02-17T17:41:18.332Z,7.30
2019-02-17T17:43:48.200Z,7.30
2019-02-17T17:46:17.766Z,7.20
2019-02-17T17:48:47.376Z,7.10
2019-02-17T17:51:16.914Z,7.00
2019-02-17T17:53:46.435Z,6.90
2019-02-17T17:56:15.947Z,6.80
2019-02-17T17:58:45.824Z,6.60
2019-02-17T18:01:15.367Z,6.60
2019-02-17T18:03:44.902Z,6.50
2019-02-17T18:06:14.396Z,6.40
2019-02-17T18:08:44.338Z,6.40
2019-02-17T18:11:14.432Z,6.30
2019-02-17T18:13:43.981Z,6.20
2019-02-17T18:16:13.462Z,6.10
2019-02-17T18:18:43.044Z,6.00
2019-02-17T18:21:12.521Z,5.90
2019-02-17T18:23:42.228Z,5.90
2019-02-17T18:26:11.844Z,5.80
2019-02-17T18:28:41.323Z,5.80
2019-02-17T18:31:10.871Z,5.70
2019-02-17T18:33:40.402Z,5.60
2019-02-17T18:36:09.932Z,5.50
2019-02-17T18:38:39.570Z,5.50
2019-02-17T18:41:09.480Z,5.40
2019-02-17T18:43:39.695Z,5.30
2019-02-17T18:46:09.241Z,5.20
2019-02-17T18:48:38.750Z,5.20
2019-02-17T18:51:08.363Z,5.10
2019-02-17T18:53:37.912Z,5.00
2019-02-17T18:56:08.242Z,5.00
2019-02-17T18:58:38.121Z,4.90
2019-02-17T19:01:07.648Z,4.90
2019-02-17T19:03:37.170Z,4.90
2019-02-17T19:06:06.682Z,4.80
2019-02-17T19:08:36.235Z,4.70
2019-02-17T19:11:05.728Z,4.70
2019-02-17T19:13:35.266Z,4.70
2019-02-17T19:16:04.793Z,4.60
2019-02-17T19:18:34.490Z,4.60
2019-02-17T19:21:04.395Z,4.50
2019-02-17T19:23:33.912Z,4.40
2019-02-17T19:26:03.422Z,4.40
2019-02-17T19:28:33.063Z,4.30
2019-02-17T19:31:02.643Z,4.20
2019-02-17T19:33:32.146Z,4.20
2019-02-17T19:36:01.811Z,4.10
2019-02-17T19:38:31.328Z,4.10
2019-02-17T19:41:01.582Z,4.10
2019-02-17T19:43:31.668Z,4.00
2019-02-17T19:46:01.748Z,4.00
2019-02-17T19:48:31.256Z,3.90
2019-02-17T19:51:00.902Z,3.90
2019-02-17T19:53:30.386Z,3.90
2019-02-17T19:56:00.349Z,3.80
2019-02-17T19:58:29.887Z,3.70
2019-02-17T20:00:59.463Z,3.70
2019-02-17T20:03:47.917Z,3.60
2019-02-17T20:06:19.720Z,3.50
2019-02-17T20:08:49.684Z,3.50
2019-02-17T20:11:19.183Z,3.40
2019-02-17T20:13:48.939Z,3.40
2019-02-17T20:16:18.429Z,3.40
2019-02-17T20:18:48.312Z,3.40
2019-02-17T20:21:18.421Z,3.40
2019-02-17T20:23:48.057Z,3.30
2019-02-17T20:26:17.625Z,3.30
2019-02-17T20:28:47.155Z,3.20
2019-02-17T20:31:16.692Z,3.20
2019-02-17T20:33:46.211Z,3.20
2019-02-17T20:36:15.732Z,3.10
2019-02-17T20:38:45.441Z,3.10
2019-02-17T20:41:15.379Z,3.10
2019-02-17T20:43:44.923Z,3.00
2019-02-17T20:46:14.423Z,3.00
2019-02-17T20:48:44.049Z,3.00
2019-02-17T20:51:13.590Z,2.90
2019-02-17T20:53:43.117Z,2.90
2019-02-17T20:56:12.602Z,2.80
2019-02-17T20:58:42.272Z,2.80
2019-02-17T21:01:11.962Z,2.80
2019-02-17T21:03:41.476Z,2.80
2019-02-17T21:06:13.039Z,2.80
2019-02-17T21:08:42.662Z,2.70
2019-02-17T21:11:12.621Z,2.80
2019-02-17T21:13:42.133Z,2.70
2019-02-17T21:16:11.675Z,2.70
2019-02-17T21:18:41.500Z,2.80
2019-02-17T21:21:11.044Z,2.80
2019-02-17T21:23:40.544Z,2.80
2019-02-17T21:26:10.422Z,3.00
2019-02-17T21:28:39.952Z,3.20
2019-02-17T21:31:09.503Z,3.10
2019-02-17T21:33:39.355Z,3.10
2019-02-17T21:36:08.904Z,3.10
2019-02-17T21:38:38.433Z,3.00
2019-02-17T21:41:09.552Z,2.90
2019-02-17T21:43:39.320Z,3.00
2019-02-17T21:46:08.822Z,3.20
2019-02-17T21:48:38.404Z,3.30
2019-02-17T21:51:08.429Z,3.40
2019-02-17T21:53:37.988Z,3.40
2019-02-17T21:56:07.609Z,3.60
2019-02-17T21:58:37.184Z,3.70
2019-02-17T22:01:06.908Z,3.70
2019-02-17T22:03:36.580Z,3.80
2019-02-17T22:06:06.231Z,3.90
2019-02-17T22:08:35.989Z,3.90
2019-02-17T22:11:06.233Z,4.00
2019-02-17T22:13:35.772Z,3.90
2019-02-17T22:16:05.485Z,3.70
2019-02-17T22:18:35.273Z,3.60
2019-02-17T22:21:05.221Z,3.60
2019-02-17T22:23:35.181Z,3.60
2019-02-17T22:26:04.725Z,3.60
2019-02-17T22:28:34.212Z,3.60
2019-02-17T22:31:04.186Z,3.60
2019-02-17T22:33:34.035Z,3.60
2019-02-17T22:36:03.565Z,3.50
2019-02-17T22:38:33.052Z,3.50
2019-02-17T22:41:02.887Z,3.40
2019-02-17T22:43:32.414Z,3.40
2019-02-17T22:46:01.894Z,3.30
2019-02-17T22:48:31.432Z,3.20
2019-02-17T22:51:01.256Z,3.20
2019-02-17T22:53:30.785Z,3.30
2019-02-17T22:56:00.284Z,3.30
2019-02-17T22:58:29.811Z,3.30
2019-02-17T23:01:01.960Z,3.40
2019-02-17T23:03:32.282Z,3.40
2019-02-17T23:06:01.814Z,3.40
2019-02-17T23:08:31.307Z,3.50
2019-02-17T23:11:00.820Z,3.60
2019-02-17T23:13:31.320Z,3.60
2019-02-17T23:16:00.839Z,3.50
2019-02-17T23:18:30.524Z,3.60
2019-02-17T23:21:00.061Z,3.70
2019-02-17T23:23:29.575Z,3.60
2019-02-17T23:25:59.061Z,3.60
2019-02-17T23:28:28.616Z,3.40
2019-02-17T23:30:58.117Z,3.40
2019-02-17T23:33:27.669Z,3.30
2019-02-17T23:35:57.168Z,3.20
2019-02-17T23:38:27.128Z,3.20
2019-02-17T23:40:56.643Z,3.10
2019-02-17T23:43:26.256Z,3.00
2019-02-17T23:45:55.787Z,3.00
2019-02-17T23:48:25.263Z,3.00
2019-02-17T23:50:54.795Z,2.90
2019-02-17T23:53:24.363Z,2.90
2019-02-17T23:55:53.856Z,2.90
2019-02-17T23:58:23.379Z,2.90
